• Join FlightAware (Why Join?)
  • Login
  • US Flag 
 
08:55AM EST


 

Airport Tracker/Info


-or-


 

Live Flight TrackerFlight Track Log ✈ SWA268 ✈ 07-Apr-2013 ✈ KSNA - KLAS

Flight Track Log - Related Links

Times and Time Zones

All times are in EDT time to prevent confusion due to time zone crossing. See the SWA268 flight status page for this flight to view local times or setup timezone preferences in your user account.

Time Position Orientation Groundspeed Altitude Reporting Facility
EDT Latitude Longitude Course Direction KTS MPH feet Rate Location/Type
12:19PM 33.6500 -117.8833 203° Southwest 141 162 1,100  Level Southern California TRACON
12:20PM 33.6167 -117.9000 203° Southwest 150 173 2,600 1,080 Climbing Southern California TRACON
12:21PM 33.5939 -117.8992 178° South 150 173 2,900 2,100 Climbing Los Angeles Center
12:22PM 33.5275 -117.9106 188° South 225 259 6,200 1,980 Climbing Los Angeles Center
12:23PM 33.4633 -117.9364 199° South 259 298 7,000 360 Climbing Los Angeles Center
12:24PM 33.4692 -118.0136 275° West 243 280 7,000 1,740 Level Los Angeles Center
12:25PM 33.5044 -118.1119 293° West 278 320 10,600 3,180 Climbing Los Angeles Center
12:26PM 33.5767 -118.1628 330° Northwest 318 366 13,600 3,000 Climbing Los Angeles Center
12:27PM 33.6639 -118.1208 22° Northeast 349 402 16,800 2,640 Climbing Los Angeles Center
12:28PM 33.7539 -118.0700 25° Northeast 361 415 19,100 2,400 Climbing Los Angeles Center
12:29PM 33.8447 -117.9981 33° Northeast 393 452 21,800 2,820 Climbing Los Angeles Center
12:30PM 33.9531 -117.9008 37° Northeast 406 467 25,000 2,760 Climbing Los Angeles Center
12:31PM 34.0472 -117.8153 37° Northeast 419 482 27,600 1,920 Climbing Los Angeles Center
12:32PM 34.1328 -117.7153 44° Northeast 434 499 29,000 660 Climbing Los Angeles Center
12:33PM 34.2164 -117.6017 48° Northeast 449 517 29,000  Level Los Angeles Center
12:34PM 34.2992 -117.4889 48° Northeast 451 519 29,000  Level Los Angeles Center
12:35PM 34.3992 -117.3539 48° Northeast 449 517 29,000  Level Los Angeles Center
12:36PM 34.4689 -117.2564 49° Northeast 456 525 29,000  Level Los Angeles Center
12:37PM 34.5669 -117.1219 48° Northeast 449 517 29,000  Level Los Angeles Center
12:38PM 34.6500 -117.0067 49° Northeast 454 522 29,000  Level Los Angeles Center
12:39PM 34.7333 -116.8928 48° Northeast 455 524 29,000  Level Los Angeles Center
12:40PM 34.8150 -116.7789 49° Northeast 452 520 29,000 -240 Level Los Angeles Center
12:41PM 34.8992 -116.6633 48° Northeast 456 525 28,600 -1,260 Descending Los Angeles Center
12:42PM 34.9992 -116.5275 48° Northeast 451 519 26,500 -1,740 Descending Los Angeles Center
12:43PM 35.0836 -116.4242 45° Northeast 440 506 25,000 -720 Descending Los Angeles Center
12:44PM 35.1589 -116.3308 45° Northeast 400 460 25,000 -540 Level Los Angeles Center
12:45PM 35.2342 -116.2383 45° Northeast 387 445 24,000 -1,260 Descending Los Angeles Center
12:46PM 35.3033 -116.1478 47° Northeast 373 429 22,400 -1,980 Descending Los Angeles Center
12:47PM 35.3900 -116.0389 46° Northeast 371 427 20,000 -2,040 Descending Los Angeles Center
12:48PM 35.4608 -115.9497 46° Northeast 368 423 18,300 -1,800 Descending Los Angeles Center
12:49PM 35.4861 -115.9178 46° Northeast 364 419 17,600 -1,800 Descending Los Angeles Center
12:49PM 35.5283 -115.8622 47° Northeast 362 417 16,500 -1,560 Descending Los Angeles Center
12:50PM 35.5628 -115.8219 44° Northeast 347 399 15,700 -1,560 Descending Los Angeles Center
12:51PM 35.5922 -115.7786 50° Northeast 350 403 14,900 -1,680 Descending Los Angeles Center
12:51PM 35.6306 -115.7344 43° Northeast 331 381 14,000 -1,560 Descending Los Angeles Center
12:52PM 35.6558 -115.7003 48° Northeast 337 388 13,300 -1,020 Descending Los Angeles Center
12:52PM 35.6914 -115.6567 45° Northeast 314 361 13,000 -300 Descending Los Angeles Center
12:53PM 35.7281 -115.6089 47° Northeast 324 373 13,000  Level Los Angeles Center
12:53PM 35.7508 -115.5819 44° Northeast 307 353 13,000  Level Los Angeles Center
12:54PM 35.7997 -115.5717 10° North 288 331 13,000  Level Los Angeles Center
12:54PM 35.8283 -115.5703 North 280 322 13,000  Level Los Angeles Center
12:55PM 35.8794 -115.5672 North 286 329 13,000  Level Los Angeles Center
12:55PM 35.9097 -115.5678 359° North 284 327 13,000  Level Los Angeles Center
12:56PM 35.9583 -115.5575 10° North 284 327 13,000 -540 Level Los Angeles Center
12:56PM 35.9850 -115.5169 51° Northeast 301 346 12,400 -1,080 Descending Los Angeles Center
12:57PM 35.9972 -115.4742 71° East 288 331 11,900 -1,200 Descending Los Angeles Center
12:57PM 36.0119 -115.4311 67° East 295 339 11,300 -900 Descending Los Angeles Center
12:58PM 36.0275 -115.3803 69° East 293 337 11,000 -840 Descending Los Angeles Center
12:58PM 36.0275 -115.3225 90° East 289 333 10,400 -1,200 Descending Los Angeles Center
12:59PM 36.0214 -115.2653 98° East 281 323 9,800 -1,140 Descending Los Angeles Center
12:59PM 36.0197 -115.2267 93° East 276 318 9,300 -1,080 Descending Los Angeles Center
01:00PM 36.0161 -115.1731 95° East 274 315 8,700 -780 Descending Los Angeles Center
01:00PM 36.0144 -115.1433 94° East 262 302 8,600 -720 Descending Los Angeles Center
01:01PM 36.0094 -115.0883 96° East 256 295 8,000 -600 Descending Los Angeles Center
01:01PM 36.0083 -115.0656 93° East 228 262 8,000 -720 Level Los Angeles Center
01:02PM 36.0058 -115.0181 94° East 219 252 7,300 -900 Descending Los Angeles Center
01:03PM 36.0031 -114.9497 93° East 209 241 6,500 -660 Descending Los Angeles Center
01:03PM 36.0011 -114.9244 95° East 194 223 6,500 -120 Level Los Angeles Center
01:04PM 36.0069 -114.8683 83° East 204 235 6,400 -480 Descending Los Angeles Center
01:04PM 36.0217 -114.8697 356° North 199 229 6,000 -900 Descending Los Angeles Center
01:05PM 36.0556 -114.8697 360° North 193 222 5,500 -540 Descending Los Angeles Center
01:05PM 36.0658 -114.8842 311° West 192 221 5,500 7,200 Level Los Angeles Center
01:06PM 36.0756 -114.9097 295° West 180 207 13,000 -720 Climbing Los Angeles Center
01:06PM 36.0739 -114.9506 267° West 183 211 4,800 -8,520 Descending Los Angeles Center
01:07PM 36.0739 -114.9867 270° West 185 213 4,200 -780 Descending Los Angeles Center
01:08PM 36.0736 -115.0494 270° West 181 208 3,500 -900 Descending Los Angeles Center
01:08PM 36.0731 -115.0653 268° West 139 160 3,000 -900 Descending Los Angeles Center
01:09PM 36.0733 -115.0897 271° West 158 182 2,600 -840 Descending Los Angeles Center
01:10PM 36.0733 -115.1158 270° West 137 158 2,200 -480 Descending Los Angeles Center
01:10PM 36.0742 -115.1517 272° West 146 168 2,000 -240 Descending Los Angeles Center
01:12PM 36.0801 -115.1523 90° East  Level Estimated